Time;durP1;ratioP1;P1;durP2;ratioP2;P2;SDS_P1;SDS_P2;PMS_P1;PMS_P2;Temp;Humidity;BMP_temperature;BMP_pressure;BME280_temperature;BME280_humidity;BME280_pressure;Samples;Min_cycle;Max_cycle;Signal;HPM_P1;HPM_P2
2023/08/06 00:00:26;;;;;;;11.82;9.40;;;14.20;94.70;;;;;;5093248;28;20051;-76
2023/08/06 00:02:51;;;;;;;8.10;7.13;;;14.20;94.80;;;;;;5076423;28;20040;-76
2023/08/06 00:05:23;;;;;;;14.98;11.60;;;14.20;94.70;;;;;;5093512;28;20039;-76
2023/08/06 00:07:49;;;;;;;12.07;10.63;;;14.20;94.80;;;;;;5093380;28;20196;-76
2023/08/06 00:10:15;;;;;;;12.73;11.38;;;14.20;94.80;;;;;;5093432;28;20047;-77
2023/08/06 00:12:41;;;;;;;19.95;13.70;;;14.20;94.80;;;;;;5076228;28;20065;-76
2023/08/06 00:15:07;;;;;;;20.35;14.20;;;14.30;94.70;;;;;;5093373;28;20044;-77
2023/08/06 00:17:34;;;;;;;18.13;14.30;;;14.20;94.70;;;;;;5059854;28;20040;-77
2023/08/06 00:20:05;;;;;;;18.35;15.63;;;14.30;94.70;;;;;;5093137;28;20046;-76
2023/08/06 00:22:38;;;;;;;17.83;14.75;;;14.20;94.80;;;;;;5076786;28;20051;-77
2023/08/06 00:25:04;;;;;;;19.08;14.27;;;14.20;94.70;;;;;;5075920;28;20087;-76
2023/08/06 00:27:30;;;;;;;13.93;11.30;;;14.20;94.70;;;;;;5092813;28;20126;-77
2023/08/06 00:29:56;;;;;;;16.85;14.23;;;14.30;94.70;;;;;;5075935;28;20123;-77
2023/08/06 00:32:22;;;;;;;18.33;13.90;;;14.30;94.70;;;;;;5059121;28;20043;-77
2023/08/06 00:34:49;;;;;;;22.30;16.38;;;14.30;94.70;;;;;;5092686;28;20055;-77
2023/08/06 00:37:16;;;;;;;18.17;14.80;;;14.30;94.70;;;;;;5076006;28;20036;-77
2023/08/06 00:39:43;;;;;;;15.00;12.77;;;14.30;94.70;;;;;;5075871;28;20507;-77
2023/08/06 00:42:08;;;;;;;17.77;13.60;;;14.30;94.80;;;;;;5092445;28;20450;-76
2023/08/06 00:44:34;;;;;;;18.65;14.95;;;14.30;94.90;;;;;;5058009;28;20035;-77
2023/08/06 00:47:01;;;;;;;17.35;14.07;;;14.30;94.90;;;;;;5075862;28;20325;-76
2023/08/06 00:49:27;;;;;;;16.20;13.63;;;14.30;94.90;;;;;;5075435;28;20074;-77
2023/08/06 00:51:52;;;;;;;21.15;14.52;;;14.30;94.90;;;;;;5075402;28;20075;-76
2023/08/06 00:54:18;;;;;;;17.73;14.27;;;14.30;94.80;;;;;;5075507;28;20081;-76
2023/08/06 00:56:45;;;;;;;19.70;15.18;;;14.30;94.80;;;;;;5092369;28;20039;-76
2023/08/06 00:59:12;;;;;;;20.48;16.13;;;14.30;94.80;;;;;;5058849;28;20047;-77
2023/08/06 01:01:38;;;;;;;19.10;14.18;;;14.40;94.80;;;;;;5092080;28;20718;-76
2023/08/06 01:04:04;;;;;;;18.05;14.68;;;14.40;94.90;;;;;;5092329;28;20047;-76
2023/08/06 01:06:43;;;;;;;17.80;14.48;;;14.40;94.80;;;;;;5075506;28;20373;-77
2023/08/06 01:09:22;;;;;;;18.75;13.25;;;14.40;94.90;;;;;;5075341;28;20044;-77
2023/08/06 01:12:13;;;;;;;17.38;12.40;;;14.40;94.80;;;;;;5075447;28;20035;-77
2023/08/06 01:15:03;;;;;;;21.02;15.10;;;14.40;94.80;;;;;;5092057;28;20109;-77
2023/08/06 01:17:30;;;;;;;16.90;12.77;;;14.50;94.90;;;;;;5091979;28;20495;-77
2023/08/06 01:19:56;;;;;;;22.67;15.75;;;14.50;94.80;;;;;;5058536;28;20119;-76
2023/08/06 01:22:22;;;;;;;19.88;15.32;;;14.50;94.80;;;;;;5075080;28;20185;-76
2023/08/06 01:24:50;;;;;;;20.58;14.07;;;14.50;94.90;;;;;;5091609;28;20052;-76
2023/08/06 01:27:39;;;;;;;17.63;13.93;;;14.50;94.90;;;;;;5091762;28;20044;-76
2023/08/06 01:30:22;;;;;;;18.77;14.60;;;14.40;94.90;;;;;;5092113;28;20028;-77
2023/08/06 01:32:53;;;;;;;14.68;12.68;;;14.50;94.90;;;;;;5091755;28;20523;-77
2023/08/06 01:35:21;;;;;;;21.17;15.75;;;14.40;95.00;;;;;;5074977;28;20568;-77
2023/08/06 01:37:48;;;;;;;17.85;14.32;;;14.50;95.00;;;;;;5091717;28;20071;-78
2023/08/06 01:40:14;;;;;;;22.80;15.43;;;14.40;95.00;;;;;;5075166;28;20063;-77
2023/08/06 01:42:40;;;;;;;19.52;15.05;;;14.40;95.00;;;;;;5091849;28;20481;-77
2023/08/06 01:45:09;;;;;;;13.65;12.07;;;14.50;95.00;;;;;;5091747;28;20075;-77
2023/08/06 01:47:36;;;;;;;16.38;13.32;;;14.40;95.00;;;;;;5091586;28;20047;-77
2023/08/06 01:50:01;;;;;;;19.42;14.85;;;14.40;95.00;;;;;;5058262;28;20094;-77
2023/08/06 01:52:27;;;;;;;18.00;14.35;;;14.40;95.10;;;;;;5091563;28;20488;-77
2023/08/06 01:54:53;;;;;;;14.13;12.57;;;14.40;95.00;;;;;;5092399;28;20028;-77
2023/08/06 01:57:19;;;;;;;18.42;13.98;;;14.40;95.00;;;;;;5062191;28;20067;-77
2023/08/06 01:59:45;;;;;;;21.20;13.90;;;14.40;95.10;;;;;;5095583;28;20036;-77
2023/08/06 02:02:10;;;;;;;17.48;14.00;;;14.40;95.10;;;;;;5095420;28;20043;-77
2023/08/06 02:04:36;;;;;;;16.33;12.98;;;14.40;95.10;;;;;;5095578;28;20508;-76
2023/08/06 02:07:02;;;;;;;18.92;14.68;;;14.40;95.10;;;;;;5078845;28;20074;-77
2023/08/06 02:09:28;;;;;;;18.88;14.48;;;14.40;95.00;;;;;;5078544;28;20477;-77
2023/08/06 02:11:53;;;;;;;17.63;14.02;;;14.30;95.00;;;;;;5095739;28;20051;-76
2023/08/06 02:14:19;;;;;;;20.35;15.45;;;14.40;95.10;;;;;;5078492;28;20447;-77
2023/08/06 02:16:45;;;;;;;16.95;13.98;;;14.40;95.10;;;;;;5078463;28;20036;-77
2023/08/06 02:19:10;;;;;;;18.02;15.38;;;14.30;95.20;;;;;;5061701;28;20051;-77
2023/08/06 02:21:36;;;;;;;19.08;14.00;;;14.40;95.20;;;;;;5095121;28;20044;-77
2023/08/06 02:24:02;;;;;;;20.05;15.00;;;14.40;95.10;;;;;;5061626;28;20048;-77
2023/08/06 02:26:28;;;;;;;18.92;14.13;;;14.40;95.20;;;;;;5078358;28;20447;-76
2023/08/06 02:28:53;;;;;;;19.42;13.98;;;14.30;95.10;;;;;;5095182;28;20039;-77
2023/08/06 02:31:19;;;;;;;19.48;16.00;;;14.40;95.20;;;;;;5095020;28;20475;-76
2023/08/06 02:33:44;;;;;;;17.83;13.52;;;14.40;95.30;;;;;;5061589;28;20044;-77
2023/08/06 02:36:10;;;;;;;13.52;10.73;;;14.30;95.30;;;;;;5094964;28;20040;-76
2023/08/06 02:38:36;;;;;;;19.70;15.73;;;14.40;95.30;;;;;;5079198;28;20044;-77
2023/08/06 02:41:05;;;;;;;15.15;13.25;;;14.40;95.30;;;;;;5078187;28;20068;-76
2023/08/06 02:43:31;;;;;;;20.70;16.35;;;14.40;95.30;;;;;;5096333;28;20067;-76
2023/08/06 02:46:00;;;;;;;21.90;15.77;;;14.40;95.30;;;;;;5113896;28;20500;-76
2023/08/06 02:48:25;;;;;;;14.95;13.35;;;14.40;95.30;;;;;;5079321;28;20228;-76
2023/08/06 02:50:51;;;;;;;16.63;14.68;;;14.40;95.30;;;;;;5112490;28;20103;-76
2023/08/06 02:53:17;;;;;;;17.75;14.25;;;14.40;95.30;;;;;;5094549;28;20040;-76
2023/08/06 02:55:50;;;;;;;17.67;13.88;;;14.40;95.40;;;;;;5098342;28;20044;-77
2023/08/06 02:58:16;;;;;;;20.30;15.50;;;14.50;95.40;;;;;;5078965;28;20044;-76
2023/08/06 03:00:43;;;;;;;17.05;14.32;;;14.50;95.40;;;;;;5078421;28;20393;-76
2023/08/06 03:03:09;;;;;;;15.05;12.25;;;14.50;95.40;;;;;;5096007;28;20075;-76
2023/08/06 03:05:35;;;;;;;18.42;14.35;;;14.50;95.40;;;;;;5094530;28;20131;-77
2023/08/06 03:08:01;;;;;;;12.23;11.00;;;14.50;95.40;;;;;;5076618;28;20115;-77
2023/08/06 03:10:27;;;;;;;17.50;12.80;;;14.50;95.40;;;;;;5077538;28;20040;-76
2023/08/06 03:12:52;;;;;;;17.05;13.45;;;14.50;95.40;;;;;;5094112;28;20053;-77
2023/08/06 03:15:18;;;;;;;16.80;13.70;;;14.50;95.40;;;;;;5094112;28;20051;-77
2023/08/06 03:17:44;;;;;;;17.80;13.48;;;14.50;95.40;;;;;;5077381;28;20044;-76
2023/08/06 03:20:10;;;;;;;15.77;12.77;;;14.50;95.40;;;;;;5077429;28;20031;-77
2023/08/06 03:22:36;;;;;;;20.08;13.57;;;14.50;95.30;;;;;;5077446;28;20032;-77
2023/08/06 03:25:02;;;;;;;16.65;11.75;;;14.40;95.30;;;;;;5093842;28;20396;-76
2023/08/06 03:27:28;;;;;;;15.68;11.75;;;14.50;95.20;;;;;;5060567;28;20081;-76
2023/08/06 03:29:53;;;;;;;17.17;12.85;;;14.50;95.20;;;;;;5060485;28;20040;-76
2023/08/06 03:32:19;;;;;;;14.27;12.00;;;14.50;95.20;;;;;;5093762;28;20511;-77
2023/08/06 03:34:45;;;;;;;15.88;13.10;;;14.50;95.20;;;;;;5077068;28;20135;-76
2023/08/06 03:37:11;;;;;;;16.58;12.88;;;14.50;95.20;;;;;;5094151;28;20048;-76
2023/08/06 03:39:36;;;;;;;17.20;12.88;;;14.40;95.20;;;;;;5060455;28;20496;-76
2023/08/06 03:42:02;;;;;;;13.93;11.60;;;14.40;95.20;;;;;;5060122;28;20044;-77
2023/08/06 03:44:28;;;;;;;20.90;13.63;;;14.50;95.20;;;;;;5076739;28;20044;-77
2023/08/06 03:46:54;;;;;;;14.65;11.35;;;14.50;95.20;;;;;;5093853;28;20084;-77
2023/08/06 03:49:19;;;;;;;15.50;12.60;;;14.50;95.20;;;;;;5076942;28;20043;-76
2023/08/06 03:51:45;;;;;;;13.60;12.07;;;14.50;95.20;;;;;;5076611;28;20040;-77
2023/08/06 03:54:11;;;;;;;14.80;12.80;;;14.40;95.20;;;;;;5093715;28;20044;-76
2023/08/06 03:56:37;;;;;;;20.13;14.75;;;14.40;95.20;;;;;;5059891;28;20404;-76
2023/08/06 03:59:02;;;;;;;17.40;13.70;;;14.30;95.20;;;;;;5093225;28;20081;-77
2023/08/06 04:01:28;;;;;;;17.98;13.35;;;14.40;95.10;;;;;;5075856;28;20044;-76
2023/08/06 04:03:54;;;;;;;19.15;14.25;;;14.30;95.10;;;;;;5075608;28;20040;-76
2023/08/06 04:06:22;;;;;;;15.95;12.70;;;14.30;95.20;;;;;;5092374;28;20040;-77
2023/08/06 04:08:48;;;;;;;15.15;11.93;;;14.30;95.20;;;;;;5058886;28;20046;-77
2023/08/06 04:11:13;;;;;;;16.38;13.25;;;14.30;95.20;;;;;;5059654;28;20039;-76
2023/08/06 04:13:43;;;;;;;16.30;12.45;;;14.30;95.20;;;;;;5076236;28;20047;-77
2023/08/06 04:16:09;;;;;;;20.33;14.52;;;14.30;95.10;;;;;;5076135;28;20044;-77
2023/08/06 04:18:34;;;;;;;20.98;14.80;;;14.30;95.10;;;;;;5059518;28;20040;-76
2023/08/06 04:21:01;;;;;;;19.30;14.98;;;14.20;95.10;;;;;;5075983;28;20110;-76
2023/08/06 04:23:29;;;;;;;18.58;14.57;;;14.20;95.10;;;;;;5076127;28;20058;-76
2023/08/06 04:25:58;;;;;;;18.70;15.15;;;14.20;95.00;;;;;;5075930;28;20127;-77
2023/08/06 04:28:23;;;;;;;20.02;14.82;;;14.20;95.10;;;;;;5075906;28;20072;-76
2023/08/06 04:30:49;;;;;;;15.38;12.23;;;14.20;95.10;;;;;;5093148;28;20082;-76
2023/08/06 04:33:15;;;;;;;20.20;15.25;;;14.10;95.00;;;;;;5092663;28;20499;-76
2023/08/06 04:35:40;;;;;;;14.35;11.23;;;14.10;95.00;;;;;;5092638;28;20138;-77
2023/08/06 04:38:06;;;;;;;14.27;12.77;;;14.10;95.00;;;;;;5076050;28;20048;-76
2023/08/06 04:40:36;;;;;;;21.10;16.02;;;14.10;94.90;;;;;;5092572;28;20477;-77
2023/08/06 04:43:02;;;;;;;12.90;11.15;;;14.10;94.90;;;;;;5092465;28;20050;-77
2023/08/06 04:45:28;;;;;;;21.23;14.82;;;14.10;94.90;;;;;;5075664;28;20036;-76
2023/08/06 04:47:53;;;;;;;22.80;15.15;;;14.10;94.90;;;;;;5075674;28;20039;-77
2023/08/06 04:50:22;;;;;;;18.10;13.68;;;14.10;94.80;;;;;;5092371;28;20069;-77
2023/08/06 04:52:48;;;;;;;16.05;12.75;;;14.10;94.80;;;;;;5092589;28;20468;-76
2023/08/06 04:55:13;;;;;;;20.58;15.88;;;14.20;94.90;;;;;;5092336;28;20075;-76
2023/08/06 04:57:39;;;;;;;19.30;15.57;;;14.20;94.90;;;;;;5058870;28;20036;-77
2023/08/06 05:00:05;;;;;;;18.13;14.13;;;14.20;95.00;;;;;;5042423;28;20072;-76
2023/08/06 05:02:34;;;;;;;21.08;13.70;;;14.20;95.00;;;;;;5075448;28;20070;-77
2023/08/06 05:05:00;;;;;;;23.10;15.98;;;14.20;95.10;;;;;;5092402;28;20047;-77
2023/08/06 05:07:25;;;;;;;29.40;15.88;;;14.20;95.20;;;;;;5075564;28;20366;-77
2023/08/06 05:09:51;;;;;;;22.88;17.20;;;14.30;95.10;;;;;;5075309;28;20042;-77
2023/08/06 05:12:17;;;;;;;17.92;15.55;;;14.30;95.10;;;;;;5091914;28;20035;-76
2023/08/06 05:14:42;;;;;;;20.02;16.02;;;14.30;95.10;;;;;;5092251;28;20044;-76
2023/08/06 05:17:08;;;;;;;21.70;16.92;;;14.30;95.10;;;;;;5091887;28;20484;-77
2023/08/06 05:19:34;;;;;;;16.90;14.52;;;14.40;95.10;;;;;;5075449;28;20076;-77
2023/08/06 05:22:00;;;;;;;18.00;14.20;;;14.40;95.10;;;;;;5058437;28;20377;-77
2023/08/06 05:24:26;;;;;;;15.57;13.00;;;14.50;95.10;;;;;;5058910;28;20110;-76
2023/08/06 05:26:52;;;;;;;22.95;16.65;;;14.50;95.10;;;;;;5075080;28;20079;-76
2023/08/06 05:29:17;;;;;;;23.23;16.95;;;14.50;95.10;;;;;;5058101;28;20043;-77
2023/08/06 05:31:43;;;;;;;19.75;16.27;;;14.60;95.10;;;;;;5058219;28;20043;-76
2023/08/06 05:34:09;;;;;;;21.05;16.17;;;14.70;95.10;;;;;;5075064;28;20044;-77
2023/08/06 05:36:35;;;;;;;15.93;12.93;;;14.70;95.10;;;;;;5075146;28;20036;-77
2023/08/06 05:39:00;;;;;;;13.13;11.00;;;14.80;95.10;;;;;;5058598;28;20130;-76
2023/08/06 05:41:26;;;;;;;20.40;14.95;;;14.80;95.00;;;;;;5091577;28;20040;-77
2023/08/06 05:43:52;;;;;;;17.48;15.30;;;14.90;95.00;;;;;;5074930;28;20036;-77
2023/08/06 05:46:17;;;;;;;17.80;15.35;;;15.00;95.00;;;;;;5091762;28;20032;-77
2023/08/06 05:48:43;;;;;;;15.13;13.55;;;15.00;95.00;;;;;;5075136;28;20040;-77
2023/08/06 05:51:09;;;;;;;16.05;13.48;;;15.10;95.00;;;;;;5075121;28;20043;-77
2023/08/06 05:53:34;;;;;;;16.50;14.40;;;15.10;95.00;;;;;;5091952;28;20035;-78
2023/08/06 05:56:00;;;;;;;14.88;12.85;;;15.20;95.00;;;;;;5074732;28;20036;-77
2023/08/06 05:58:29;;;;;;;18.55;14.75;;;15.30;95.00;;;;;;5074816;28;20040;-78
2023/08/06 06:00:54;;;;;;;15.40;12.35;;;15.30;94.90;;;;;;5075488;28;20101;-77
2023/08/06 06:03:20;;;;;;;13.75;12.35;;;15.30;94.80;;;;;;5091776;28;20123;-77
2023/08/06 06:05:46;;;;;;;15.15;13.15;;;15.30;94.70;;;;;;5074883;28;20136;-78
2023/08/06 06:08:11;;;;;;;16.63;13.30;;;15.30;94.70;;;;;;5091811;28;20123;-78
2023/08/06 06:10:37;;;;;;;13.35;10.70;;;15.30;94.70;;;;;;5041446;28;20043;-78
2023/08/06 06:13:03;;;;;;;15.07;13.00;;;15.40;94.70;;;;;;5074682;28;20040;-77
2023/08/06 06:15:28;;;;;;;15.02;13.35;;;15.50;94.70;;;;;;5091367;28;20059;-78
2023/08/06 06:17:54;;;;;;;12.57;11.20;;;15.50;94.60;;;;;;5091474;28;20040;-77
2023/08/06 06:20:20;;;;;;;14.40;12.30;;;15.60;94.70;;;;;;5057896;28;20058;-77
2023/08/06 06:22:45;;;;;;;9.75;8.15;;;15.70;94.60;;;;;;5074626;28;20043;-77
2023/08/06 06:25:11;;;;;;;10.10;9.10;;;15.80;94.50;;;;;;5057662;28;20101;-77
2023/08/06 06:27:37;;;;;;;11.30;10.20;;;15.90;94.40;;;;;;5041388;28;20130;-78
2023/08/06 06:30:04;;;;;;;13.50;10.20;;;15.90;94.30;;;;;;5074757;28;20036;-77
2023/08/06 06:32:29;;;;;;;9.63;8.68;;;15.90;94.20;;;;;;5091618;28;20043;-78
2023/08/06 06:34:55;;;;;;;11.48;10.38;;;16.00;94.00;;;;;;5091325;28;20419;-78
2023/08/06 06:37:21;;;;;;;11.63;10.43;;;16.00;93.90;;;;;;5074560;28;20043;-76
2023/08/06 06:39:46;;;;;;;12.57;8.75;;;16.10;93.80;;;;;;5074657;28;20101;-78
2023/08/06 06:42:12;;;;;;;12.95;10.07;;;16.20;93.70;;;;;;5076899;28;20484;-77
2023/08/06 06:44:38;;;;;;;15.40;10.63;;;16.20;93.60;;;;;;5078017;28;20039;-78
2023/08/06 06:47:04;;;;;;;13.05;9.98;;;16.30;93.50;;;;;;5094806;28;20036;-78
2023/08/06 06:49:29;;;;;;;13.02;10.27;;;16.30;93.10;;;;;;5094859;28;20084;-78
2023/08/06 06:51:55;;;;;;;9.18;8.15;;;16.50;93.00;;;;;;5094904;28;20040;-77
2023/08/06 06:54:21;;;;;;;10.82;9.73;;;16.50;93.00;;;;;;5077837;28;20046;-78
2023/08/06 06:56:46;;;;;;;10.02;8.85;;;16.70;92.90;;;;;;5061063;28;20040;-77
2023/08/06 06:59:12;;;;;;;9.35;8.38;;;16.70;92.80;;;;;;5094586;28;20075;-78
2023/08/06 07:01:38;;;;;;;14.82;9.13;;;16.70;92.60;;;;;;5094386;28;20069;-77
2023/08/06 07:04:04;;;;;;;10.07;8.88;;;16.80;92.50;;;;;;5077852;28;20047;-77
2023/08/06 07:06:31;;;;;;;9.88;8.77;;;16.70;92.20;;;;;;5061218;28;20040;-78
2023/08/06 07:08:57;;;;;;;13.15;8.80;;;16.70;92.00;;;;;;5077799;28;20032;-77
2023/08/06 07:11:22;;;;;;;9.95;8.65;;;16.70;91.90;;;;;;5077333;28;20040;-79
2023/08/06 07:13:56;;;;;;;9.90;8.90;;;16.70;91.70;;;;;;5077466;28;20058;-78
2023/08/06 07:16:21;;;;;;;10.68;9.50;;;16.70;91.50;;;;;;5094340;28;20050;-77
2023/08/06 07:18:47;;;;;;;12.93;10.23;;;16.70;91.30;;;;;;5077722;28;20040;-77
2023/08/06 07:21:12;;;;;;;10.20;9.02;;;16.70;91.50;;;;;;5077166;28;20484;-78
2023/08/06 07:23:38;;;;;;;11.30;8.60;;;16.80;91.40;;;;;;5093872;28;20134;-78
2023/08/06 07:26:04;;;;;;;8.00;7.20;;;16.80;91.40;;;;;;5094175;28;20047;-78
2023/08/06 07:28:29;;;;;;;9.63;7.88;;;16.90;91.10;;;;;;5060843;28;20098;-77
2023/08/06 07:30:55;;;;;;;8.57;7.78;;;16.80;90.90;;;;;;5060462;28;20043;-76
2023/08/06 07:33:21;;;;;;;9.98;8.38;;;16.90;90.70;;;;;;5060749;28;20035;-78
2023/08/06 07:35:46;;;;;;;10.25;8.93;;;16.90;90.50;;;;;;5075332;28;20042;-77
2023/08/06 07:38:12;;;;;;;12.68;9.95;;;17.00;90.40;;;;;;5058276;28;20036;-78
2023/08/06 07:40:38;;;;;;;11.02;9.10;;;17.10;90.40;;;;;;5074934;28;20417;-78
2023/08/06 07:43:06;;;;;;;8.65;7.82;;;17.20;90.50;;;;;;5077603;28;20127;-77
2023/08/06 07:45:37;;;;;;;8.82;7.95;;;17.30;90.50;;;;;;5064185;28;20032;-78
2023/08/06 07:48:03;;;;;;;9.80;8.80;;;17.30;90.30;;;;;;5078187;28;20039;-77
2023/08/06 07:50:29;;;;;;;8.75;7.85;;;17.40;90.10;;;;;;5076964;28;20101;-79
2023/08/06 07:52:57;;;;;;;8.27;7.47;;;17.40;89.80;;;;;;5042881;28;20032;-79
2023/08/06 07:55:22;;;;;;;9.10;7.80;;;17.40;89.40;;;;;;5060335;28;20052;-77
2023/08/06 07:57:48;;;;;;;9.80;7.60;;;17.50;89.20;;;;;;5093684;28;20039;-77
2023/08/06 08:00:14;;;;;;;8.35;7.43;;;17.50;89.10;;;;;;5076122;28;20480;-77
2023/08/06 08:02:40;;;;;;;8.32;6.93;;;17.60;88.80;;;;;;5076482;28;20044;-76
2023/08/06 08:05:08;;;;;;;7.43;6.55;;;17.80;88.30;;;;;;5093524;28;20024;-77
2023/08/06 08:07:34;;;;;;;7.50;6.22;;;18.00;88.20;;;;;;5092895;28;20051;-77
2023/08/06 08:09:59;;;;;;;7.20;6.40;;;18.10;87.60;;;;;;5076435;28;20040;-77
2023/08/06 08:12:25;;;;;;;8.13;6.57;;;18.30;86.70;;;;;;5059595;28;20066;-77
2023/08/06 08:14:51;;;;;;;8.15;5.95;;;18.40;86.60;;;;;;5059684;28;20079;-77
2023/08/06 08:17:16;;;;;;;6.32;5.68;;;18.50;85.70;;;;;;5059660;28;20402;-78
2023/08/06 08:19:43;;;;;;;6.60;4.85;;;18.50;85.60;;;;;;5076164;28;20054;-77
2023/08/06 08:22:08;;;;;;;5.38;4.88;;;18.50;85.70;;;;;;5076034;28;20127;-80
2023/08/06 08:24:34;;;;;;;9.15;4.20;;;18.50;85.60;;;;;;5092629;28;20135;-77
2023/08/06 08:27:00;;;;;;;5.75;4.15;;;18.60;85.20;;;;;;5076305;28;20061;-78
2023/08/06 08:29:26;;;;;;;5.78;4.03;;;18.70;85.20;;;;;;5093153;28;20502;-76
2023/08/06 08:31:51;;;;;;;4.95;4.32;;;18.80;85.00;;;;;;5092578;28;20140;-78
2023/08/06 08:34:17;;;;;;;6.20;4.47;;;18.90;84.70;;;;;;5092638;28;20040;-77
2023/08/06 08:36:46;;;;;;;4.50;3.72;;;19.00;84.50;;;;;;5059197;28;20492;-79
2023/08/06 08:39:15;;;;;;;5.25;4.75;;;19.10;84.20;;;;;;5092634;28;20044;-79
2023/08/06 08:41:41;;;;;;;4.13;3.63;;;19.10;83.80;;;;;;5092178;28;20377;-77
2023/08/06 08:44:10;;;;;;;6.65;3.75;;;19.20;83.80;;;;;;5059519;28;20221;-80
2023/08/06 08:46:38;;;;;;;4.25;3.45;;;19.20;83.60;;;;;;5075790;28;20073;-78
2023/08/06 08:49:04;;;;;;;4.30;3.50;;;19.30;83.20;;;;;;5092782;28;20075;-80
2023/08/06 08:51:30;;;;;;;5.45;3.40;;;19.30;82.40;;;;;;5092379;28;20484;-80
2023/08/06 08:53:57;;;;;;;6.40;3.40;;;19.40;82.60;;;;;;5075608;28;20039;-80
2023/08/06 08:56:24;;;;;;;5.32;3.45;;;19.40;82.50;;;;;;5092380;28;20055;-80
2023/08/06 08:58:51;;;;;;;4.30;3.83;;;19.40;82.20;;;;;;5075477;28;20044;-80
2023/08/06 09:01:17;;;;;;;4.68;3.42;;;19.50;82.10;;;;;;5092173;28;20495;-79
2023/08/06 09:03:44;;;;;;;4.38;2.90;;;19.50;81.90;;;;;;5092146;28;20047;-81
2023/08/06 09:06:12;;;;;;;4.35;3.00;;;19.50;81.90;;;;;;5075237;28;20036;-81
2023/08/06 09:08:59;;;;;;;3.25;2.88;;;19.60;81.30;;;;;;5075830;28;20032;-78
2023/08/06 09:11:26;;;;;;;4.13;2.55;;;19.70;81.00;;;;;;5092700;28;20039;-78
2023/08/06 09:13:54;;;;;;;4.07;2.40;;;19.70;80.00;;;;;;5092720;28;20048;-79
2023/08/06 09:16:19;;;;;;;4.80;2.60;;;19.70;80.00;;;;;;5092348;28;20123;-78
2023/08/06 09:18:45;;;;;;;3.55;2.85;;;19.70;80.30;;;;;;5075583;28;20148;-79
2023/08/06 09:21:16;;;;;;;3.47;2.72;;;19.70;78.80;;;;;;5075407;28;20043;-79
2023/08/06 09:23:41;;;;;;;3.08;2.60;;;19.70;78.80;;;;;;5075350;28;20042;-78
2023/08/06 09:26:11;;;;;;;3.80;2.55;;;19.70;78.70;;;;;;5059035;28;20122;-80
2023/08/06 09:28:39;;;;;;;4.13;2.53;;;19.80;79.10;;;;;;5092260;28;20033;-79
2023/08/06 09:31:04;;;;;;;3.20;2.83;;;19.80;78.70;;;;;;5092262;28;20080;-79
2023/08/06 09:33:30;;;;;;;4.85;2.65;;;19.80;78.40;;;;;;5075391;28;20075;-78
2023/08/06 09:35:56;;;;;;;3.97;2.55;;;19.70;78.30;;;;;;5075278;28;20040;-76
2023/08/06 09:38:21;;;;;;;3.78;2.75;;;19.70;78.60;;;;;;5075577;28;20051;-79
2023/08/06 09:40:47;;;;;;;6.75;2.65;;;19.70;78.70;;;;;;5075058;28;20450;-77
2023/08/06 09:43:13;;;;;;;4.68;2.65;;;19.70;79.10;;;;;;5075213;28;20190;-77
2023/08/06 09:45:39;;;;;;;3.55;2.35;;;19.70;79.30;;;;;;5075463;28;20130;-77
2023/08/06 09:48:07;;;;;;;2.70;2.08;;;19.70;78.80;;;;;;5092135;28;20058;-80
2023/08/06 09:50:36;;;;;;;2.70;2.25;;;19.60;77.60;;;;;;5092099;28;20485;-80
2023/08/06 09:53:03;;;;;;;4.18;2.50;;;19.60;77.10;;;;;;5075043;28;20040;-81
2023/08/06 09:55:29;;;;;;;2.58;2.38;;;19.70;77.60;;;;;;5091924;28;20040;-79
2023/08/06 09:57:56;;;;;;;3.30;2.30;;;19.80;77.70;;;;;;5075146;28;20051;-79
2023/08/06 10:00:22;;;;;;;3.72;2.40;;;19.90;77.50;;;;;;5075104;28;20044;-77
2023/08/06 10:02:49;;;;;;;3.35;2.70;;;20.00;77.10;;;;;;5092184;28;20044;-78
2023/08/06 10:05:16;;;;;;;3.22;2.50;;;20.20;77.10;;;;;;5075252;28;20044;-77
2023/08/06 10:07:44;;;;;;;2.85;2.53;;;20.40;76.70;;;;;;5075384;28;20040;-77
2023/08/06 10:10:10;;;;;;;4.90;3.10;;;20.50;76.00;;;;;;5091720;28;20072;-79
2023/08/06 10:12:40;;;;;;;3.90;2.83;;;20.40;76.20;;;;;;5091600;28;20125;-80
2023/08/06 10:15:12;;;;;;;3.10;2.70;;;20.40;75.90;;;;;;5091811;28;20055;-79
2023/08/06 10:17:39;;;;;;;2.97;2.60;;;20.40;76.00;;;;;;5095515;28;20074;-78
2023/08/06 10:20:07;;;;;;;3.90;3.17;;;20.30;76.70;;;;;;5078676;28;20052;-79
2023/08/06 10:22:33;;;;;;;3.70;2.72;;;20.10;76.90;;;;;;5062112;28;20491;-81
2023/08/06 10:25:04;;;;;;;3.85;2.78;;;19.90;77.30;;;;;;5095465;28;20055;-82
2023/08/06 10:27:37;;;;;;;3.72;2.67;;;19.80;78.10;;;;;;5079131;28;20076;-80
2023/08/06 10:30:25;;;;;;;5.57;2.90;;;19.70;78.50;;;;;;5095651;28;20040;-77
2023/08/06 10:33:02;;;;;;;3.25;2.60;;;19.70;78.70;;;;;;5078686;28;20048;-81
2023/08/06 10:35:32;;;;;;;4.57;2.58;;;19.60;78.80;;;;;;5078845;28;20431;-81
2023/08/06 10:38:07;;;;;;;4.32;3.25;;;19.50;78.90;;;;;;5078396;28;20089;-80
2023/08/06 10:40:33;;;;;;;6.07;3.90;;;19.40;79.10;;;;;;5079569;28;20039;-77
2023/08/06 10:43:00;;;;;;;6.47;3.13;;;19.40;79.10;;;;;;5076522;28;20040;-78
2023/08/06 10:45:28;;;;;;;5.15;2.92;;;19.40;79.30;;;;;;5061321;28;20382;-79
2023/08/06 10:47:58;;;;;;;4.28;2.63;;;19.30;79.40;;;;;;5074755;28;20389;-81
2023/08/06 10:50:24;;;;;;;3.53;2.28;;;19.30;79.60;;;;;;5058191;28;20036;-78
2023/08/06 10:52:51;;;;;;;3.72;2.47;;;19.30;79.50;;;;;;5074809;28;20461;-78
2023/08/06 10:55:24;;;;;;;3.80;2.78;;;19.30;79.50;;;;;;5058100;28;20080;-78
2023/08/06 10:57:50;;;;;;;;;;;19.30;79.20;;;;;;5058640;28;20037;-81
2023/08/06 11:00:16;;;;;;;9.55;3.40;;;19.40;79.00;;;;;;5074736;28;20318;-79
2023/08/06 11:02:43;;;;;;;5.20;3.28;;;19.40;78.70;;;;;;5041625;28;20041;-79
2023/08/06 11:05:11;;;;;;;15.05;6.60;;;19.40;78.50;;;;;;5074721;28;20064;-78
2023/08/06 11:07:37;;;;;;;6.45;3.67;;;19.40;78.80;;;;;;5074781;28;20043;-79
2023/08/06 11:10:04;;;;;;;5.03;2.95;;;19.40;79.20;;;;;;5074703;28;20435;-79
2023/08/06 11:12:31;;;;;;;4.05;3.13;;;19.50;79.10;;;;;;5074729;28;20048;-80
2023/08/06 11:14:57;;;;;;;3.90;2.63;;;19.50;79.60;;;;;;5057715;28;20044;-81
2023/08/06 11:17:23;;;;;;;4.32;2.80;;;19.60;79.80;;;;;;5074828;28;20040;-78
2023/08/06 11:19:50;;;;;;;3.92;3.42;;;19.70;79.60;;;;;;5059203;28;20040;-78
2023/08/06 11:22:17;;;;;;;5.72;3.83;;;19.70;79.30;;;;;;5057469;28;20047;-79
2023/08/06 11:24:43;;;;;;;4.00;3.28;;;19.80;79.10;;;;;;5057559;28;20055;-77
2023/08/06 11:27:16;;;;;;;7.03;4.50;;;19.90;79.40;;;;;;5057211;28;20044;-76
2023/08/06 11:29:42;;;;;;;4.97;3.05;;;19.90;79.40;;;;;;5074443;28;20071;-77
2023/08/06 11:32:09;;;;;;;6.10;3.65;;;19.90;79.50;;;;;;5057848;28;20041;-78
2023/08/06 11:34:36;;;;;;;5.78;3.90;;;20.00;79.30;;;;;;5074389;28;20048;-79
2023/08/06 11:37:06;;;;;;;4.78;3.50;;;20.00;78.90;;;;;;5074356;28;20048;-76
2023/08/06 11:39:36;;;;;;;5.20;3.33;;;20.00;78.60;;;;;;5074035;28;20097;-77
2023/08/06 11:42:06;;;;;;;6.38;3.88;;;20.00;78.50;;;;;;5073826;28;20049;-80
2023/08/06 11:44:34;;;;;;;4.10;3.55;;;20.00;78.70;;;;;;5041169;28;20036;-79
2023/08/06 11:47:02;;;;;;;5.40;3.65;;;20.00;78.80;;;;;;5073815;28;20037;-78
2023/08/06 11:49:41;;;;;;;3.72;3.17;;;20.00;79.00;;;;;;5057309;28;20039;-79
2023/08/06 11:52:22;;;;;;;5.78;3.40;;;20.10;79.00;;;;;;5073907;28;20373;-79
2023/08/06 11:55:11;;;;;;;5.32;3.92;;;20.10;78.70;;;;;;5073722;28;20171;-77
2023/08/06 11:57:39;;;;;;;4.25;3.28;;;20.20;78.60;;;;;;5057234;28;20098;-78
2023/08/06 12:00:09;;;;;;;3.50;3.20;;;20.20;78.20;;;;;;5073602;28;20048;-77
2023/08/06 12:02:37;;;;;;;8.63;4.35;;;20.10;77.90;;;;;;5057034;28;20484;-80
2023/08/06 12:05:25;;;;;;;6.05;3.95;;;20.20;77.90;;;;;;5073582;28;20518;-79
2023/08/06 12:07:54;;;;;;;3.65;2.92;;;20.20;77.90;;;;;;5073815;28;20079;-77
2023/08/06 12:10:23;;;;;;;6.13;3.10;;;20.20;77.60;;;;;;5057232;28;20044;-79
2023/08/06 12:12:49;;;;;;;4.07;3.22;;;20.20;77.10;;;;;;5072993;28;20037;-80
2023/08/06 12:15:16;;;;;;;4.93;3.33;;;20.20;76.90;;;;;;5072884;28;20050;-78
2023/08/06 12:17:42;;;;;;;5.50;3.75;;;20.30;77.00;;;;;;5072880;28;20079;-79
2023/08/06 12:20:09;;;;;;;6.00;4.15;;;20.30;77.10;;;;;;5073051;28;20431;-78
2023/08/06 12:22:35;;;;;;;6.15;4.15;;;20.40;77.30;;;;;;5072762;28;20123;-78
2023/08/06 12:25:08;;;;;;;5.20;3.60;;;20.40;77.40;;;;;;5055979;28;20044;-78
2023/08/06 12:27:35;;;;;;;5.23;3.20;;;20.40;77.60;;;;;;5073024;28;20036;-77
2023/08/06 12:30:01;;;;;;;5.72;3.70;;;20.30;77.10;;;;;;5039323;28;20041;-79
2023/08/06 12:32:26;;;;;;;6.13;4.22;;;20.30;76.90;;;;;;5055754;28;20131;-77
2023/08/06 12:34:52;;;;;;;3.92;3.53;;;20.20;76.90;;;;;;5056142;28;20131;-78